sensor_id;sensor_type;location;lat;lon;timestamp;pressure;altitude;pressure_sealevel;temperature;humidity
3254;BME280;1639;42.804;23.342;2023-05-23T00:01:29;72848.19;;;-148.52;100.00
3254;BME280;1639;42.804;23.342;2023-05-23T00:03:56;72835.78;;;-148.52;100.00
3254;BME280;1639;42.804;23.342;2023-05-23T00:06:21;72844.06;;;-148.52;100.00
3254;BME280;1639;42.804;23.342;2023-05-23T00:08:47;72850.25;;;-148.52;100.00
3254;BME280;1639;42.804;23.342;2023-05-23T00:11:13;72854.41;;;-148.52;100.00
3254;BME280;1639;42.804;23.342;2023-05-23T00:13:38;72856.47;;;-148.52;100.00
3254;BME280;1639;42.804;23.342;2023-05-23T00:16:05;72862.66;;;-148.52;100.00
3254;BME280;1639;42.804;23.342;2023-05-23T00:18:34;72864.75;;;-148.52;100.00
3254;BME280;1639;42.804;23.342;2023-05-23T00:21:00;72881.28;;;-148.52;100.00
3254;BME280;1639;42.804;23.342;2023-05-23T00:23:26;72868.88;;;-148.52;100.00
3254;BME280;1639;42.804;23.342;2023-05-23T00:25:54;72864.75;;;-148.52;100.00
3254;BME280;1639;42.804;23.342;2023-05-23T00:28:20;72864.75;;;-148.52;100.00
3254;BME280;1639;42.804;23.342;2023-05-23T00:30:45;72854.41;;;-148.52;100.00
3254;BME280;1639;42.804;23.342;2023-05-23T00:33:11;72854.41;;;-148.52;100.00
3254;BME280;1639;42.804;23.342;2023-05-23T00:35:39;72848.19;;;-148.52;100.00
3254;BME280;1639;42.804;23.342;2023-05-23T00:38:04;72860.59;;;-148.52;100.00
3254;BME280;1639;42.804;23.342;2023-05-23T00:40:32;72873.00;;;-148.52;100.00
3254;BME280;1639;42.804;23.342;2023-05-23T00:42:58;72885.41;;;-148.52;100.00
3254;BME280;1639;42.804;23.342;2023-05-23T00:45:24;72889.56;;;-148.52;100.00
3254;BME280;1639;42.804;23.342;2023-05-23T00:47:49;72899.91;;;-148.52;100.00
3254;BME280;1639;42.804;23.342;2023-05-23T00:50:15;72912.31;;;-148.52;100.00
3254;BME280;1639;42.804;23.342;2023-05-23T00:52:41;72939.19;;;-148.52;100.00
3254;BME280;1639;42.804;23.342;2023-05-23T00:55:08;72951.59;;;-148.52;100.00
3254;BME280;1639;42.804;23.342;2023-05-23T00:57:35;72974.34;;;-148.52;100.00
3254;BME280;1639;42.804;23.342;2023-05-23T01:00:08;72988.81;;;-148.52;100.00
3254;BME280;1639;42.804;23.342;2023-05-23T01:02:42;73007.44;;;-148.52;100.00
3254;BME280;1639;42.804;23.342;2023-05-23T01:05:13;73009.50;;;-148.52;100.00
3254;BME280;1639;42.804;23.342;2023-05-23T01:07:42;73024.00;;;-148.52;100.00
3254;BME280;1639;42.804;23.342;2023-05-23T01:10:08;73026.06;;;-148.52;100.00
3254;BME280;1639;42.804;23.342;2023-05-23T01:15:49;73030.19;;;-148.52;100.00
3254;BME280;1639;42.804;23.342;2023-05-23T01:18:20;73021.91;;;-148.52;100.00
3254;BME280;1639;42.804;23.342;2023-05-23T01:26:12;73032.25;;;-148.52;100.00
3254;BME280;1639;42.804;23.342;2023-05-23T01:28:44;73036.41;;;-148.52;100.00
3254;BME280;1639;42.804;23.342;2023-05-23T01:31:10;73044.66;;;-148.52;100.00
3254;BME280;1639;42.804;23.342;2023-05-23T01:33:37;73048.81;;;-148.52;100.00
3254;BME280;1639;42.804;23.342;2023-05-23T01:36:04;73046.75;;;-148.52;100.00
3254;BME280;1639;42.804;23.342;2023-05-23T01:38:30;73048.81;;;-148.52;100.00
3254;BME280;1639;42.804;23.342;2023-05-23T01:40:55;73040.53;;;-148.52;100.00
3254;BME280;1639;42.804;23.342;2023-05-23T01:43:21;73021.91;;;-148.52;100.00
3254;BME280;1639;42.804;23.342;2023-05-23T01:45:48;73026.06;;;-148.52;100.00
3254;BME280;1639;42.804;23.342;2023-05-23T01:48:14;73034.34;;;-148.52;100.00
3254;BME280;1639;42.804;23.342;2023-05-23T01:50:42;73038.47;;;-148.52;100.00
3254;BME280;1639;42.804;23.342;2023-05-23T01:53:12;73057.09;;;-148.52;100.00
3254;BME280;1639;42.804;23.342;2023-05-23T01:55:40;73071.56;;;-148.52;100.00
3254;BME280;1639;42.804;23.342;2023-05-23T01:58:06;73088.09;;;-148.52;100.00
3254;BME280;1639;42.804;23.342;2023-05-23T02:00:31;73075.69;;;-148.52;100.00
3254;BME280;1639;42.804;23.342;2023-05-23T02:02:57;73069.50;;;-148.52;100.00
3254;BME280;1639;42.804;23.342;2023-05-23T02:05:23;73057.09;;;-148.52;100.00
3254;BME280;1639;42.804;23.342;2023-05-23T02:07:48;73057.09;;;-148.52;100.00
3254;BME280;1639;42.804;23.342;2023-05-23T02:10:14;73079.84;;;-148.52;100.00
3254;BME280;1639;42.804;23.342;2023-05-23T02:12:39;73092.25;;;-148.52;100.00
3254;BME280;1639;42.804;23.342;2023-05-23T02:15:05;73088.09;;;-148.52;100.00
3254;BME280;1639;42.804;23.342;2023-05-23T02:17:31;73083.97;;;-148.52;100.00
3254;BME280;1639;42.804;23.342;2023-05-23T02:19:57;73061.22;;;-148.52;100.00
3254;BME280;1639;42.804;23.342;2023-05-23T02:22:23;73048.81;;;-148.52;100.00
3254;BME280;1639;42.804;23.342;2023-05-23T02:24:51;73048.81;;;-148.52;100.00
3254;BME280;1639;42.804;23.342;2023-05-23T02:27:17;73048.81;;;-148.52;100.00
3254;BME280;1639;42.804;23.342;2023-05-23T02:29:42;73044.66;;;-148.52;100.00
3254;BME280;1639;42.804;23.342;2023-05-23T02:32:08;73057.09;;;-148.52;100.00
3254;BME280;1639;42.804;23.342;2023-05-23T02:34:33;73050.88;;;-148.52;100.00
3254;BME280;1639;42.804;23.342;2023-05-23T02:36:59;73063.28;;;-148.52;100.00
3254;BME280;1639;42.804;23.342;2023-05-23T02:39:26;73057.09;;;-148.52;100.00
3254;BME280;1639;42.804;23.342;2023-05-23T02:41:51;73042.59;;;-148.52;100.00
3254;BME280;1639;42.804;23.342;2023-05-23T02:44:17;73036.41;;;-148.52;100.00
3254;BME280;1639;42.804;23.342;2023-05-23T02:46:44;73026.06;;;-148.52;100.00
3254;BME280;1639;42.804;23.342;2023-05-23T02:49:10;73036.41;;;-148.52;100.00
3254;BME280;1639;42.804;23.342;2023-05-23T02:51:35;73044.66;;;-148.52;100.00
3254;BME280;1639;42.804;23.342;2023-05-23T02:54:00;73032.25;;;-148.52;100.00
3254;BME280;1639;42.804;23.342;2023-05-23T02:56:26;73021.91;;;-148.52;100.00
3254;BME280;1639;42.804;23.342;2023-05-23T02:58:52;73015.72;;;-148.52;100.00
3254;BME280;1639;42.804;23.342;2023-05-23T03:01:17;73015.72;;;-148.52;100.00
3254;BME280;1639;42.804;23.342;2023-05-23T03:03:43;73050.88;;;-148.52;100.00
3254;BME280;1639;42.804;23.342;2023-05-23T03:06:08;73036.41;;;-148.52;100.00
3254;BME280;1639;42.804;23.342;2023-05-23T03:08:41;73030.19;;;-148.52;100.00
3254;BME280;1639;42.804;23.342;2023-05-23T03:11:06;73021.91;;;-148.52;100.00
3254;BME280;1639;42.804;23.342;2023-05-23T03:13:31;73011.56;;;-148.52;100.00
3254;BME280;1639;42.804;23.342;2023-05-23T03:15:57;73011.56;;;-148.52;100.00
3254;BME280;1639;42.804;23.342;2023-05-23T03:18:22;73003.31;;;-148.52;100.00
3254;BME280;1639;42.804;23.342;2023-05-23T03:20:47;73003.31;;;-148.52;100.00
3254;BME280;1639;42.804;23.342;2023-05-23T03:23:13;73003.31;;;-148.52;100.00
3254;BME280;1639;42.804;23.342;2023-05-23T03:25:38;73001.25;;;-148.52;100.00
3254;BME280;1639;42.804;23.342;2023-05-23T03:28:03;72997.09;;;-148.52;100.00
3254;BME280;1639;42.804;23.342;2023-05-23T03:30:29;72992.97;;;-148.52;100.00
3254;BME280;1639;42.804;23.342;2023-05-23T03:32:54;72997.09;;;-148.52;100.00
3254;BME280;1639;42.804;23.342;2023-05-23T03:35:20;73005.38;;;-148.52;100.00
3254;BME280;1639;42.804;23.342;2023-05-23T03:37:45;73030.19;;;-148.52;100.00
3254;BME280;1639;42.804;23.342;2023-05-23T03:40:11;73050.88;;;-148.52;100.00
3254;BME280;1639;42.804;23.342;2023-05-23T03:42:37;73021.91;;;-148.52;100.00
3254;BME280;1639;42.804;23.342;2023-05-23T03:45:03;73028.13;;;-148.52;100.00
3254;BME280;1639;42.804;23.342;2023-05-23T03:47:29;73009.50;;;-148.52;100.00
3254;BME280;1639;42.804;23.342;2023-05-23T03:49:54;73005.38;;;-148.52;100.00
3254;BME280;1639;42.804;23.342;2023-05-23T03:52:20;72997.09;;;-148.52;100.00
3254;BME280;1639;42.804;23.342;2023-05-23T03:54:45;73003.31;;;-148.52;100.00
3254;BME280;1639;42.804;23.342;2023-05-23T03:57:10;72990.91;;;-148.52;100.00
3254;BME280;1639;42.804;23.342;2023-05-23T03:59:36;72988.81;;;-148.52;100.00
3254;BME280;1639;42.804;23.342;2023-05-23T04:02:01;72964.00;;;-148.52;100.00
3254;BME280;1639;42.804;23.342;2023-05-23T04:04:28;72945.41;;;-148.52;100.00
3254;BME280;1639;42.804;23.342;2023-05-23T04:06:53;72933.00;;;-148.52;100.00
3254;BME280;1639;42.804;23.342;2023-05-23T04:09:19;72912.31;;;-148.52;100.00
3254;BME280;1639;42.804;23.342;2023-05-23T04:11:44;72935.06;;;-148.52;100.00
3254;BME280;1639;42.804;23.342;2023-05-23T04:14:11;72914.38;;;-148.52;100.00
3254;BME280;1639;42.804;23.342;2023-05-23T04:16:38;72906.09;;;-148.52;100.00
3254;BME280;1639;42.804;23.342;2023-05-23T04:19:06;72906.09;;;-148.52;100.00
3254;BME280;1639;42.804;23.342;2023-05-23T04:21:32;72901.97;;;-148.52;100.00
3254;BME280;1639;42.804;23.342;2023-05-23T04:23:57;72901.97;;;-148.52;100.00
3254;BME280;1639;42.804;23.342;2023-05-23T04:26:23;72901.97;;;-148.52;100.00
3254;BME280;1639;42.804;23.342;2023-05-23T04:28:49;72889.56;;;-148.52;100.00
3254;BME280;1639;42.804;23.342;2023-05-23T04:31:19;72893.69;;;-148.52;100.00
3254;BME280;1639;42.804;23.342;2023-05-23T04:33:44;72901.97;;;-148.52;100.00
3254;BME280;1639;42.804;23.342;2023-05-23T04:36:10;72891.63;;;-148.52;100.00
3254;BME280;1639;42.804;23.342;2023-05-23T04:38:35;72887.50;;;-148.52;100.00
3254;BME280;1639;42.804;23.342;2023-05-23T04:41:03;72897.81;;;-148.52;100.00
3254;BME280;1639;42.804;23.342;2023-05-23T04:43:30;72899.91;;;-148.52;100.00
3254;BME280;1639;42.804;23.342;2023-05-23T04:45:58;72897.81;;;-148.52;100.00
3254;BME280;1639;42.804;23.342;2023-05-23T04:48:23;72897.81;;;-148.52;100.00
3254;BME280;1639;42.804;23.342;2023-05-23T04:50:51;72881.28;;;-148.52;100.00
3254;BME280;1639;42.804;23.342;2023-05-23T04:53:16;72866.81;;;-148.52;100.00
3254;BME280;1639;42.804;23.342;2023-05-23T04:55:42;72860.59;;;-148.52;100.00
3254;BME280;1639;42.804;23.342;2023-05-23T04:58:07;72850.25;;;-148.52;100.00
3254;BME280;1639;42.804;23.342;2023-05-23T05:00:34;72844.06;;;-148.52;100.00
3254;BME280;1639;42.804;23.342;2023-05-23T05:03:00;72835.78;;;-148.52;100.00
3254;BME280;1639;42.804;23.342;2023-05-23T05:05:25;72833.72;;;-148.52;100.00
3254;BME280;1639;42.804;23.342;2023-05-23T05:07:51;72831.66;;;-148.52;100.00
3254;BME280;1639;42.804;23.342;2023-05-23T05:10:16;72829.56;;;-148.52;100.00
3254;BME280;1639;42.804;23.342;2023-05-23T05:12:45;72823.38;;;-148.52;100.00
3254;BME280;1639;42.804;23.342;2023-05-23T05:15:11;72823.38;;;-148.52;100.00
3254;BME280;1639;42.804;23.342;2023-05-23T05:17:37;72817.16;;;-148.52;100.00
3254;BME280;1639;42.804;23.342;2023-05-23T05:20:03;72806.81;;;-148.52;100.00
3254;BME280;1639;42.804;23.342;2023-05-23T05:22:34;72804.75;;;-148.52;100.00
3254;BME280;1639;42.804;23.342;2023-05-23T05:24:59;72798.56;;;-148.52;100.00
3254;BME280;1639;42.804;23.342;2023-05-23T05:27:26;72790.28;;;-148.52;100.00
3254;BME280;1639;42.804;23.342;2023-05-23T05:29:51;72773.75;;;-148.52;100.00
3254;BME280;1639;42.804;23.342;2023-05-23T05:32:17;72786.16;;;-148.52;100.00
3254;BME280;1639;42.804;23.342;2023-05-23T05:34:43;72786.16;;;-148.52;100.00
3254;BME280;1639;42.804;23.342;2023-05-23T05:37:08;72786.16;;;-148.52;100.00
3254;BME280;1639;42.804;23.342;2023-05-23T05:39:34;72802.69;;;-148.52;100.00
3254;BME280;1639;42.804;23.342;2023-05-23T05:41:59;72852.31;;;-148.52;100.00
3254;BME280;1639;42.804;23.342;2023-05-23T05:44:27;72850.25;;;-148.52;100.00
3254;BME280;1639;42.804;23.342;2023-05-23T05:46:53;72850.25;;;-148.52;100.00
3254;BME280;1639;42.804;23.342;2023-05-23T05:49:18;72856.47;;;-148.52;100.00
3254;BME280;1639;42.804;23.342;2023-05-23T05:51:43;72883.34;;;-148.52;100.00
3254;BME280;1639;42.804;23.342;2023-05-23T05:54:09;72877.16;;;-148.52;100.00
3254;BME280;1639;42.804;23.342;2023-05-23T05:56:34;72866.81;;;-148.52;100.00
3254;BME280;1639;42.804;23.342;2023-05-23T05:59:00;72858.53;;;-148.52;100.00
3254;BME280;1639;42.804;23.342;2023-05-23T06:01:26;72844.06;;;-148.52;100.00
3254;BME280;1639;42.804;23.342;2023-05-23T06:03:51;72839.91;;;-148.52;100.00
3254;BME280;1639;42.804;23.342;2023-05-23T06:06:16;72823.38;;;-148.52;100.00
3254;BME280;1639;42.804;23.342;2023-05-23T06:08:43;72813.03;;;-148.52;100.00
3254;BME280;1639;42.804;23.342;2023-05-23T06:11:08;72821.31;;;-148.52;100.00
3254;BME280;1639;42.804;23.342;2023-05-23T06:13:33;72831.66;;;-148.52;100.00
3254;BME280;1639;42.804;23.342;2023-05-23T06:15:59;72810.97;;;-148.52;100.00
3254;BME280;1639;42.804;23.342;2023-05-23T06:18:24;72792.34;;;-148.52;100.00
3254;BME280;1639;42.804;23.342;2023-05-23T06:20:50;72784.09;;;-148.52;100.00
3254;BME280;1639;42.804;23.342;2023-05-23T06:23:15;72790.28;;;-148.52;100.00
3254;BME280;1639;42.804;23.342;2023-05-23T06:25:41;72798.56;;;-148.52;100.00
3254;BME280;1639;42.804;23.342;2023-05-23T06:28:06;72802.69;;;-148.52;100.00
3254;BME280;1639;42.804;23.342;2023-05-23T06:30:32;72806.81;;;-148.52;100.00
3254;BME280;1639;42.804;23.342;2023-05-23T06:33:00;72798.56;;;-148.52;100.00
3254;BME280;1639;42.804;23.342;2023-05-23T06:35:25;72792.34;;;-148.52;100.00
3254;BME280;1639;42.804;23.342;2023-05-23T06:37:51;72790.28;;;-148.52;100.00
3254;BME280;1639;42.804;23.342;2023-05-23T06:40:16;72777.88;;;-148.52;100.00
3254;BME280;1639;42.804;23.342;2023-05-23T06:42:42;72761.34;;;-148.52;100.00
3254;BME280;1639;42.804;23.342;2023-05-23T06:45:08;72744.78;;;-148.52;100.00
3254;BME280;1639;42.804;23.342;2023-05-23T06:47:33;72722.03;;;-148.52;100.00
3254;BME280;1639;42.804;23.342;2023-05-23T06:49:59;72713.75;;;-148.52;100.00
3254;BME280;1639;42.804;23.342;2023-05-23T06:52:24;72705.50;;;-148.52;100.00
3254;BME280;1639;42.804;23.342;2023-05-23T06:54:50;72713.75;;;-148.52;100.00
3254;BME280;1639;42.804;23.342;2023-05-23T06:57:15;72713.75;;;-148.52;100.00
3254;BME280;1639;42.804;23.342;2023-05-23T06:59:40;72695.16;;;-148.52;100.00
3254;BME280;1639;42.804;23.342;2023-05-23T07:02:06;72680.69;;;-148.52;100.00
3254;BME280;1639;42.804;23.342;2023-05-23T07:04:31;72686.88;;;-148.52;100.00
3254;BME280;1639;42.804;23.342;2023-05-23T07:06:56;72668.28;;;-148.52;100.00
3254;BME280;1639;42.804;23.342;2023-05-23T07:09:22;72649.66;;;-148.52;100.00
3254;BME280;1639;42.804;23.342;2023-05-23T07:11:47;72626.91;;;-148.52;100.00
3254;BME280;1639;42.804;23.342;2023-05-23T07:14:13;72618.63;;;-148.52;100.00
3254;BME280;1639;42.804;23.342;2023-05-23T07:16:39;72602.09;;;-148.52;100.00
3254;BME280;1639;42.804;23.342;2023-05-23T07:19:04;72573.13;;;-148.52;100.00
3254;BME280;1639;42.804;23.342;2023-05-23T07:21:30;72554.53;;;-148.52;100.00
3254;BME280;1639;42.804;23.342;2023-05-23T07:23:55;72583.47;;;-148.52;100.00
3254;BME280;1639;42.804;23.342;2023-05-23T07:26:21;72610.38;;;-148.52;100.00
3254;BME280;1639;42.804;23.342;2023-05-23T07:28:46;72641.38;;;-148.52;100.00
3254;BME280;1639;42.804;23.342;2023-05-23T07:31:11;72626.91;;;-148.52;100.00
3254;BME280;1639;42.804;23.342;2023-05-23T07:33:37;72657.94;;;-148.52;100.00
3254;BME280;1639;42.804;23.342;2023-05-23T07:36:03;72672.41;;;-148.52;100.00
3254;BME280;1639;42.804;23.342;2023-05-23T07:38:28;72637.25;;;-148.52;100.00
3254;BME280;1639;42.804;23.342;2023-05-23T07:40:54;72633.13;;;-148.52;100.00
3254;BME280;1639;42.804;23.342;2023-05-23T07:43:19;72622.78;;;-148.52;100.00
3254;BME280;1639;42.804;23.342;2023-05-23T07:45:45;72612.44;;;-148.52;100.00
3254;BME280;1639;42.804;23.342;2023-05-23T07:48:10;72600.03;;;-148.52;100.00
3254;BME280;1639;42.804;23.342;2023-05-23T07:50:38;72560.72;;;-148.52;100.00
3254;BME280;1639;42.804;23.342;2023-05-23T07:53:03;72548.31;;;-148.52;100.00
3254;BME280;1639;42.804;23.342;2023-05-23T07:55:29;72531.78;;;-148.52;100.00
3254;BME280;1639;42.804;23.342;2023-05-23T07:57:54;72498.69;;;-148.52;100.00
3254;BME280;1639;42.804;23.342;2023-05-23T08:00:20;72475.94;;;-148.52;100.00
3254;BME280;1639;42.804;23.342;2023-05-23T08:02:46;72459.41;;;-148.52;100.00
3254;BME280;1639;42.804;23.342;2023-05-23T08:05:11;72438.72;;;-148.52;100.00
3254;BME280;1639;42.804;23.342;2023-05-23T08:07:36;72418.03;;;-148.52;100.00
3254;BME280;1639;42.804;23.342;2023-05-23T08:10:02;72496.63;;;-148.52;100.00
3254;BME280;1639;42.804;23.342;2023-05-23T08:12:27;72447.00;;;-148.52;100.00
3254;BME280;1639;42.804;23.342;2023-05-23T08:14:53;72422.19;;;-148.52;100.00
3254;BME280;1639;42.804;23.342;2023-05-23T08:17:18;72403.56;;;-148.52;100.00
3254;BME280;1639;42.804;23.342;2023-05-23T08:19:43;72391.16;;;-148.52;100.00
3254;BME280;1639;42.804;23.342;2023-05-23T08:22:09;72376.69;;;-148.52;100.00
3254;BME280;1639;42.804;23.342;2023-05-23T08:24:34;72343.59;;;-148.52;100.00
3254;BME280;1639;42.804;23.342;2023-05-23T08:26:59;72300.16;;;-148.52;100.00
3254;BME280;1639;42.804;23.342;2023-05-23T08:29:25;72256.75;;;-148.52;100.00
3254;BME280;1639;42.804;23.342;2023-05-23T08:31:50;72227.78;;;-148.52;100.00
3254;BME280;1639;42.804;23.342;2023-05-23T08:34:16;72157.50;;;-148.52;100.00
3254;BME280;1639;42.804;23.342;2023-05-23T08:36:41;72159.56;;;-148.52;100.00
3254;BME280;1639;42.804;23.342;2023-05-23T08:39:07;72136.81;;;-148.52;100.00
3254;BME280;1639;42.804;23.342;2023-05-23T08:41:33;72101.66;;;-148.52;100.00
3254;BME280;1639;42.804;23.342;2023-05-23T08:43:59;72093.41;;;-148.52;100.00
3254;BME280;1639;42.804;23.342;2023-05-23T08:46:24;72085.13;;;-148.52;100.00
3254;BME280;1639;42.804;23.342;2023-05-23T08:48:53;72054.09;;;-148.52;100.00
3254;BME280;1639;42.804;23.342;2023-05-23T08:51:24;72025.16;;;-148.52;100.00
3254;BME280;1639;42.804;23.342;2023-05-23T08:53:50;72043.78;;;-148.52;100.00
3254;BME280;1639;42.804;23.342;2023-05-23T08:56:18;72070.66;;;-148.52;100.00
3254;BME280;1639;42.804;23.342;2023-05-23T08:58:44;72085.13;;;-148.52;100.00
3254;BME280;1639;42.804;23.342;2023-05-23T09:01:12;72167.84;;;-148.52;100.00
3254;BME280;1639;42.804;23.342;2023-05-23T09:03:38;72182.31;;;-148.52;100.00
3254;BME280;1639;42.804;23.342;2023-05-23T09:06:08;72248.47;;;-148.52;100.00
3254;BME280;1639;42.804;23.342;2023-05-23T09:08:34;72231.94;;;-148.52;100.00
3254;BME280;1639;42.804;23.342;2023-05-23T09:11:01;72229.88;;;-148.52;100.00
3254;BME280;1639;42.804;23.342;2023-05-23T09:13:29;72159.56;;;-148.52;100.00
3254;BME280;1639;42.804;23.342;2023-05-23T09:16:06;72091.31;;;-148.52;100.00
3254;BME280;1639;42.804;23.342;2023-05-23T09:18:41;72037.56;;;-148.52;100.00
3254;BME280;1639;42.804;23.342;2023-05-23T09:21:08;72021.03;;;-148.52;100.00
3254;BME280;1639;42.804;23.342;2023-05-23T09:23:35;71956.94;;;-148.52;100.00
3254;BME280;1639;42.804;23.342;2023-05-23T09:26:08;71905.22;;;-148.52;100.00
3254;BME280;1639;42.804;23.342;2023-05-23T09:28:35;71855.59;;;-148.52;100.00
3254;BME280;1639;42.804;23.342;2023-05-23T09:31:05;71810.13;;;-148.52;100.00
3254;BME280;1639;42.804;23.342;2023-05-23T09:33:41;71791.50;;;-148.52;100.00
3254;BME280;1639;42.804;23.342;2023-05-23T09:36:07;71768.78;;;-148.52;100.00
3254;BME280;1639;42.804;23.342;2023-05-23T09:38:40;71768.78;;;-148.52;100.00
3254;BME280;1639;42.804;23.342;2023-05-23T09:41:06;71737.75;;;-148.52;100.00
3254;BME280;1639;42.804;23.342;2023-05-23T09:43:32;71702.59;;;-148.52;100.00
3254;BME280;1639;42.804;23.342;2023-05-23T09:46:06;71686.06;;;-148.52;84.08
3254;BME280;1639;42.804;23.342;2023-05-23T09:48:32;71671.59;;;-148.52;81.16
3254;BME280;1639;42.804;23.342;2023-05-23T09:50:57;71675.72;;;-148.52;79.47
3254;BME280;1639;42.804;23.342;2023-05-23T09:53:23;71657.13;;;-148.52;75.44
3254;BME280;1639;42.804;23.342;2023-05-23T09:55:53;71605.44;;;-148.52;71.94
3254;BME280;1639;42.804;23.342;2023-05-23T09:58:22;71555.81;;;-148.52;71.82
3254;BME280;1639;42.804;23.342;2023-05-23T10:00:51;71535.13;;;-148.52;70.69
3254;BME280;1639;42.804;23.342;2023-05-23T10:03:21;71510.34;;;-148.52;70.21
3254;BME280;1639;42.804;23.342;2023-05-23T10:05:49;71514.47;;;-148.52;58.34
3254;BME280;1639;42.804;23.342;2023-05-23T10:08:35;71533.06;;;-148.52;57.56
3254;BME280;1639;42.804;23.342;2023-05-23T10:13:40;71468.97;;;-148.52;55.81
3254;BME280;1639;42.804;23.342;2023-05-23T10:16:13;71429.69;;;-148.52;58.01
3254;BME280;1639;42.804;23.342;2023-05-23T10:18:43;71398.69;;;-148.52;52.21
3254;BME280;1639;42.804;23.342;2023-05-23T10:21:11;71371.81;;;-148.52;53.43
3254;BME280;1639;42.804;23.342;2023-05-23T10:23:37;71359.41;;;-148.52;48.33
3254;BME280;1639;42.804;23.342;2023-05-23T10:26:03;71330.47;;;-148.52;49.54
3254;BME280;1639;42.804;23.342;2023-05-23T10:28:30;71330.47;;;-148.52;48.54
3254;BME280;1639;42.804;23.342;2023-05-23T10:30:56;71301.53;;;-148.52;49.06
3254;BME280;1639;42.804;23.342;2023-05-23T10:33:22;71305.66;;;-148.52;48.46
3254;BME280;1639;42.804;23.342;2023-05-23T10:36:13;71287.06;;;-148.52;47.13
3254;BME280;1639;42.804;23.342;2023-05-23T10:39:04;71274.66;;;-148.52;48.99
3254;BME280;1639;42.804;23.342;2023-05-23T10:41:35;71268.44;;;-148.52;46.76
3254;BME280;1639;42.804;23.342;2023-05-23T10:46:57;71237.44;;;-148.52;45.23
3254;BME280;1639;42.804;23.342;2023-05-23T10:49:38;71264.31;;;-148.52;43.53
3254;BME280;1639;42.804;23.342;2023-05-23T10:52:05;71274.66;;;-148.52;42.23
3254;BME280;1639;42.804;23.342;2023-05-23T10:54:43;71260.19;;;-148.52;41.99
3254;BME280;1639;42.804;23.342;2023-05-23T10:57:10;71291.19;;;-148.52;44.44
3254;BME280;1639;42.804;23.342;2023-05-23T10:59:39;71264.31;;;-148.52;42.01
3254;BME280;1639;42.804;23.342;2023-05-23T11:02:12;71218.84;;;-148.52;42.19
3254;BME280;1639;42.804;23.342;2023-05-23T11:04:38;71173.34;;;-148.52;44.53
3254;BME280;1639;42.804;23.342;2023-05-23T11:07:04;71165.09;;;-148.52;42.59
3254;BME280;1639;42.804;23.342;2023-05-23T11:09:29;71125.81;;;-148.52;42.22
3254;BME280;1639;42.804;23.342;2023-05-23T11:12:04;71107.19;;;-148.52;40.37
3254;BME280;1639;42.804;23.342;2023-05-23T11:19:39;71249.84;;;-148.52;40.86
3254;BME280;1639;42.804;23.342;2023-05-23T11:22:20;71284.97;;;-148.52;40.43
3254;BME280;1639;42.804;23.342;2023-05-23T11:24:57;71239.50;;;-148.52;45.32
3254;BME280;1639;42.804;23.342;2023-05-23T11:27:40;71359.41;;;-148.52;40.60
3254;BME280;1639;42.804;23.342;2023-05-23T11:30:14;71311.84;;;-148.52;41.57
3254;BME280;1639;42.804;23.342;2023-05-23T11:32:41;71301.53;;;-148.52;40.97
3254;BME280;1639;42.804;23.342;2023-05-23T11:35:08;71295.31;;;-148.52;39.25
3254;BME280;1639;42.804;23.342;2023-05-23T11:37:35;71311.84;;;-148.52;38.31
3254;BME280;1639;42.804;23.342;2023-05-23T11:42:49;71284.97;;;-148.52;38.88
3254;BME280;1639;42.804;23.342;2023-05-23T11:45:14;71249.84;;;-148.52;40.93
3254;BME280;1639;42.804;23.342;2023-05-23T11:47:40;71227.09;;;-148.52;40.11
3254;BME280;1639;42.804;23.342;2023-05-23T11:50:06;71210.56;;;-148.52;38.58
3254;BME280;1639;42.804;23.342;2023-05-23T11:52:31;71241.56;;;-148.52;37.61
3254;BME280;1639;42.804;23.342;2023-05-23T11:55:00;71293.25;;;-148.52;38.48
3254;BME280;1639;42.804;23.342;2023-05-23T11:57:26;71231.22;;;-148.52;39.58
3254;BME280;1639;42.804;23.342;2023-05-23T11:59:51;71173.34;;;-148.52;37.55
3254;BME280;1639;42.804;23.342;2023-05-23T12:02:17;71142.34;;;-148.52;37.48
3254;BME280;1639;42.804;23.342;2023-05-23T12:04:42;71175.41;;;-148.52;37.33
3254;BME280;1639;42.804;23.342;2023-05-23T12:07:07;71218.84;;;-148.52;40.26
3254;BME280;1639;42.804;23.342;2023-05-23T12:09:43;71206.44;;;-148.52;39.43
3254;BME280;1639;42.804;23.342;2023-05-23T12:12:09;71156.81;;;-148.52;37.58
3254;BME280;1639;42.804;23.342;2023-05-23T12:14:35;71152.69;;;-148.52;37.67
3254;BME280;1639;42.804;23.342;2023-05-23T12:17:03;71206.44;;;-148.52;39.58
3254;BME280;1639;42.804;23.342;2023-05-23T12:19:29;71332.53;;;-148.52;37.65
3254;BME280;1639;42.804;23.342;2023-05-23T12:21:55;71293.25;;;-148.52;35.84
3254;BME280;1639;42.804;23.342;2023-05-23T12:24:21;71282.91;;;-148.52;36.04
3254;BME280;1639;42.804;23.342;2023-05-23T12:26:56;71305.66;;;-148.52;39.66
3254;BME280;1639;42.804;23.342;2023-05-23T12:29:28;71355.28;;;-148.52;37.93
3254;BME280;1639;42.804;23.342;2023-05-23T12:31:53;71409.03;;;-148.52;38.34
3254;BME280;1639;42.804;23.342;2023-05-23T12:34:20;71396.63;;;-148.52;38.59
3254;BME280;1639;42.804;23.342;2023-05-23T12:36:46;71328.41;;;-148.52;35.98
3254;BME280;1639;42.804;23.342;2023-05-23T12:39:13;71307.72;;;-148.52;38.84
3254;BME280;1639;42.804;23.342;2023-05-23T12:41:40;71282.91;;;-148.52;37.30
3254;BME280;1639;42.804;23.342;2023-05-23T12:44:07;71268.44;;;-148.52;37.59
3254;BME280;1639;42.804;23.342;2023-05-23T12:46:32;71260.19;;;-148.52;36.13
3254;BME280;1639;42.804;23.342;2023-05-23T12:48:58;71235.38;;;-148.52;36.93
3254;BME280;1639;42.804;23.342;2023-05-23T12:51:24;71235.38;;;-148.52;37.63
3254;BME280;1639;42.804;23.342;2023-05-23T12:53:49;71235.38;;;-148.52;37.52
3254;BME280;1639;42.804;23.342;2023-05-23T12:56:15;71326.34;;;-148.52;38.08
3254;BME280;1639;42.804;23.342;2023-05-23T12:58:40;71380.09;;;-148.52;37.46
3254;BME280;1639;42.804;23.342;2023-05-23T13:01:06;71417.28;;;-148.52;38.66
3254;BME280;1639;42.804;23.342;2023-05-23T13:03:31;71429.69;;;-148.52;38.21